sensor_id;sensor_type;location;lat;lon;timestamp;temperature;humidity
2463;DHT22;1243;54.298;10.172;2022-08-04T00:01:40;20.70;99.90
2463;DHT22;1243;54.298;10.172;2022-08-04T00:04:17;20.60;99.90
2463;DHT22;1243;54.298;10.172;2022-08-04T00:06:54;20.60;99.90
2463;DHT22;1243;54.298;10.172;2022-08-04T00:09:58;20.60;99.90
2463;DHT22;1243;54.298;10.172;2022-08-04T00:12:27;20.50;99.90
2463;DHT22;1243;54.298;10.172;2022-08-04T00:14:58;20.40;99.90
2463;DHT22;1243;54.298;10.172;2022-08-04T00:17:30;20.40;99.90
2463;DHT22;1243;54.298;10.172;2022-08-04T00:20:00;20.40;99.90
2463;DHT22;1243;54.298;10.172;2022-08-04T00:22:29;20.40;99.90
2463;DHT22;1243;54.298;10.172;2022-08-04T00:24:55;20.40;99.90
2463;DHT22;1243;54.298;10.172;2022-08-04T00:27:22;20.30;99.90
2463;DHT22;1243;54.298;10.172;2022-08-04T00:29:48;20.30;99.90
2463;DHT22;1243;54.298;10.172;2022-08-04T00:32:16;20.30;99.90
2463;DHT22;1243;54.298;10.172;2022-08-04T00:34:43;20.30;99.90
2463;DHT22;1243;54.298;10.172;2022-08-04T00:37:09;20.40;99.90
2463;DHT22;1243;54.298;10.172;2022-08-04T00:39:35;20.40;99.90
2463;DHT22;1243;54.298;10.172;2022-08-04T00:42:14;20.50;99.90
2463;DHT22;1243;54.298;10.172;2022-08-04T00:48:01;20.50;99.90
2463;DHT22;1243;54.298;10.172;2022-08-04T00:53:33;20.60;99.90
2463;DHT22;1243;54.298;10.172;2022-08-04T00:56:04;20.60;99.90
2463;DHT22;1243;54.298;10.172;2022-08-04T00:58:49;20.60;99.90
2463;DHT22;1243;54.298;10.172;2022-08-04T01:04:02;20.60;99.90
2463;DHT22;1243;54.298;10.172;2022-08-04T01:09:26;20.60;99.90
2463;DHT22;1243;54.298;10.172;2022-08-04T01:17:36;20.60;99.90
2463;DHT22;1243;54.298;10.172;2022-08-04T01:20:08;20.60;99.90
2463;DHT22;1243;54.298;10.172;2022-08-04T01:22:42;20.60;99.90
2463;DHT22;1243;54.298;10.172;2022-08-04T01:31:24;20.60;99.90
2463;DHT22;1243;54.298;10.172;2022-08-04T01:33:51;20.60;99.90
2463;DHT22;1243;54.298;10.172;2022-08-04T01:36:20;20.60;99.90
2463;DHT22;1243;54.298;10.172;2022-08-04T01:38:49;20.70;99.90
2463;DHT22;1243;54.298;10.172;2022-08-04T01:41:18;20.70;99.90
2463;DHT22;1243;54.298;10.172;2022-08-04T01:43:45;20.70;99.90
2463;DHT22;1243;54.298;10.172;2022-08-04T01:46:13;20.70;99.90
2463;DHT22;1243;54.298;10.172;2022-08-04T01:48:41;20.70;99.90
2463;DHT22;1243;54.298;10.172;2022-08-04T01:51:09;20.70;99.90
2463;DHT22;1243;54.298;10.172;2022-08-04T01:53:37;20.70;99.90
2463;DHT22;1243;54.298;10.172;2022-08-04T01:56:05;20.70;99.90
2463;DHT22;1243;54.298;10.172;2022-08-04T01:58:33;20.70;99.90
2463;DHT22;1243;54.298;10.172;2022-08-04T02:01:10;20.70;99.90
2463;DHT22;1243;54.298;10.172;2022-08-04T02:03:38;20.70;99.90
2463;DHT22;1243;54.298;10.172;2022-08-04T02:15:11;20.50;99.90
2463;DHT22;1243;54.298;10.172;2022-08-04T02:17:59;20.40;99.90
2463;DHT22;1243;54.298;10.172;2022-08-04T02:20:43;20.30;99.90
2463;DHT22;1243;54.298;10.172;2022-08-04T02:23:14;20.30;99.90
2463;DHT22;1243;54.298;10.172;2022-08-04T02:25:59;20.20;99.90
2463;DHT22;1243;54.298;10.172;2022-08-04T02:33:45;20.00;99.90
2463;DHT22;1243;54.298;10.172;2022-08-04T02:36:21;20.00;99.90
2463;DHT22;1243;54.298;10.172;2022-08-04T02:38:57;19.90;99.90
2463;DHT22;1243;54.298;10.172;2022-08-04T02:41:26;19.90;99.90
2463;DHT22;1243;54.298;10.172;2022-08-04T02:43:56;19.80;99.90
2463;DHT22;1243;54.298;10.172;2022-08-04T02:46:23;19.80;99.90
2463;DHT22;1243;54.298;10.172;2022-08-04T02:48:51;19.70;99.90
2463;DHT22;1243;54.298;10.172;2022-08-04T02:51:22;19.70;99.90
2463;DHT22;1243;54.298;10.172;2022-08-04T02:53:52;19.70;99.90
2463;DHT22;1243;54.298;10.172;2022-08-04T02:56:19;19.60;99.90
2463;DHT22;1243;54.298;10.172;2022-08-04T02:58:50;19.60;99.90
2463;DHT22;1243;54.298;10.172;2022-08-04T03:01:17;19.50;99.90
2463;DHT22;1243;54.298;10.172;2022-08-04T03:04:11;19.50;99.90
2463;DHT22;1243;54.298;10.172;2022-08-04T03:20:09;19.50;99.90
2463;DHT22;1243;54.298;10.172;2022-08-04T03:25:52;19.50;99.90
2463;DHT22;1243;54.298;10.172;2022-08-04T03:34:24;19.50;99.90
2463;DHT22;1243;54.298;10.172;2022-08-04T03:39:51;19.50;99.90
2463;DHT22;1243;54.298;10.172;2022-08-04T03:42:32;19.50;99.90
2463;DHT22;1243;54.298;10.172;2022-08-04T03:53:42;19.60;99.90
2463;DHT22;1243;54.298;10.172;2022-08-04T03:56:48;19.60;99.90
2463;DHT22;1243;54.298;10.172;2022-08-04T03:59:26;19.60;99.90
2463;DHT22;1243;54.298;10.172;2022-08-04T04:02:58;19.70;99.90
2463;DHT22;1243;54.298;10.172;2022-08-04T04:05:37;19.70;99.90
2463;DHT22;1243;54.298;10.172;2022-08-04T04:19:46;19.70;99.90
2463;DHT22;1243;54.298;10.172;2022-08-04T04:25:05;19.70;99.90
2463;DHT22;1243;54.298;10.172;2022-08-04T04:30:38;19.80;99.90
2463;DHT22;1243;54.298;10.172;2022-08-04T04:33:33;19.90;99.90
2463;DHT22;1243;54.298;10.172;2022-08-04T04:49:44;20.00;99.90
2463;DHT22;1243;54.298;10.172;2022-08-04T04:52:33;20.10;99.90
2463;DHT22;1243;54.298;10.172;2022-08-04T04:57:34;20.20;99.90
2463;DHT22;1243;54.298;10.172;2022-08-04T05:00:10;20.30;99.90
2463;DHT22;1243;54.298;10.172;2022-08-04T05:06:15;20.50;99.90
2463;DHT22;1243;54.298;10.172;2022-08-04T05:08:52;20.50;99.90
2463;DHT22;1243;54.298;10.172;2022-08-04T05:11:50;20.60;99.90
2463;DHT22;1243;54.298;10.172;2022-08-04T05:14:30;20.70;99.90
2463;DHT22;1243;54.298;10.172;2022-08-04T05:17:19;20.80;99.90
2463;DHT22;1243;54.298;10.172;2022-08-04T05:19:52;20.90;99.90
2463;DHT22;1243;54.298;10.172;2022-08-04T05:23:10;21.00;99.90
2463;DHT22;1243;54.298;10.172;2022-08-04T05:25:20;21.20;99.90
2463;DHT22;1243;54.298;10.172;2022-08-04T05:27:55;21.30;99.90
2463;DHT22;1243;54.298;10.172;2022-08-04T15:47:22;29.80;99.90
2463;DHT22;1243;54.298;10.172;2022-08-04T15:50:07;29.50;99.90
2463;DHT22;1243;54.298;10.172;2022-08-04T15:58:08;29.30;99.90
2463;DHT22;1243;54.298;10.172;2022-08-04T16:19:14;28.70;99.90
2463;DHT22;1243;54.298;10.172;2022-08-04T16:21:53;28.50;99.90
2463;DHT22;1243;54.298;10.172;2022-08-04T16:24:20;28.20;99.90
2463;DHT22;1243;54.298;10.172;2022-08-04T16:26:57;28.10;99.90
2463;DHT22;1243;54.298;10.172;2022-08-04T16:29:26;28.00;99.90
2463;DHT22;1243;54.298;10.172;2022-08-04T16:34:30;27.80;99.90
2463;DHT22;1243;54.298;10.172;2022-08-04T16:36:58;27.60;99.90
2463;DHT22;1243;54.298;10.172;2022-08-04T16:39:24;27.50;99.90
2463;DHT22;1243;54.298;10.172;2022-08-04T16:41:50;27.30;99.90
2463;DHT22;1243;54.298;10.172;2022-08-04T16:44:34;27.30;99.90
2463;DHT22;1243;54.298;10.172;2022-08-04T16:47:07;27.10;99.90
2463;DHT22;1243;54.298;10.172;2022-08-04T16:49:33;27.00;99.90
2463;DHT22;1243;54.298;10.172;2022-08-04T16:52:04;26.90;99.90
2463;DHT22;1243;54.298;10.172;2022-08-04T16:54:31;26.70;99.90
2463;DHT22;1243;54.298;10.172;2022-08-04T16:56:58;26.70;99.90
2463;DHT22;1243;54.298;10.172;2022-08-04T16:59:24;26.60;99.90
2463;DHT22;1243;54.298;10.172;2022-08-04T17:01:52;26.50;99.90
2463;DHT22;1243;54.298;10.172;2022-08-04T17:04:32;26.50;99.90
2463;DHT22;1243;54.298;10.172;2022-08-04T17:07:00;26.40;99.90
2463;DHT22;1243;54.298;10.172;2022-08-04T17:09:26;26.40;99.90
2463;DHT22;1243;54.298;10.172;2022-08-04T17:11:53;26.30;99.90
2463;DHT22;1243;54.298;10.172;2022-08-04T17:14:27;26.30;99.90
2463;DHT22;1243;54.298;10.172;2022-08-04T17:16:59;26.30;99.90
2463;DHT22;1243;54.298;10.172;2022-08-04T17:19:25;26.30;99.90
2463;DHT22;1243;54.298;10.172;2022-08-04T17:21:56;26.30;99.90
2463;DHT22;1243;54.298;10.172;2022-08-04T17:24:22;26.20;99.90
2463;DHT22;1243;54.298;10.172;2022-08-04T17:26:47;26.00;99.90
2463;DHT22;1243;54.298;10.172;2022-08-04T17:29:13;25.80;99.90
2463;DHT22;1243;54.298;10.172;2022-08-04T17:31:39;25.80;99.90
2463;DHT22;1243;54.298;10.172;2022-08-04T17:34:12;25.80;99.90
2463;DHT22;1243;54.298;10.172;2022-08-04T17:36:38;25.80;99.90
2463;DHT22;1243;54.298;10.172;2022-08-04T17:39:30;25.80;99.90
2463;DHT22;1243;54.298;10.172;2022-08-04T17:41:58;25.70;99.90
2463;DHT22;1243;54.298;10.172;2022-08-04T17:44:37;25.60;99.90
2463;DHT22;1243;54.298;10.172;2022-08-04T17:47:14;25.60;99.90
2463;DHT22;1243;54.298;10.172;2022-08-04T17:49:40;25.60;99.90
2463;DHT22;1243;54.298;10.172;2022-08-04T17:52:06;25.60;99.90
2463;DHT22;1243;54.298;10.172;2022-08-04T17:54:37;25.50;99.90
2463;DHT22;1243;54.298;10.172;2022-08-04T17:57:18;25.40;99.90
2463;DHT22;1243;54.298;10.172;2022-08-04T17:59:45;25.50;99.90
2463;DHT22;1243;54.298;10.172;2022-08-04T18:02:13;25.40;99.90
2463;DHT22;1243;54.298;10.172;2022-08-04T18:07:32;25.30;99.90
2463;DHT22;1243;54.298;10.172;2022-08-04T18:09:58;25.20;99.90
2463;DHT22;1243;54.298;10.172;2022-08-04T18:12:33;25.10;99.90
2463;DHT22;1243;54.298;10.172;2022-08-04T18:15:06;25.10;99.90
2463;DHT22;1243;54.298;10.172;2022-08-04T18:17:37;25.00;1.00
2463;DHT22;1243;54.298;10.172;2022-08-04T18:20:08;24.90;99.90
2463;DHT22;1243;54.298;10.172;2022-08-04T18:22:35;24.80;99.90
2463;DHT22;1243;54.298;10.172;2022-08-04T18:25:01;24.70;1.00
2463;DHT22;1243;54.298;10.172;2022-08-04T18:27:29;24.60;1.00
2463;DHT22;1243;54.298;10.172;2022-08-04T18:29:56;24.60;1.00
2463;DHT22;1243;54.298;10.172;2022-08-04T18:32:22;24.60;99.90
2463;DHT22;1243;54.298;10.172;2022-08-04T18:34:51;24.50;1.00
2463;DHT22;1243;54.298;10.172;2022-08-04T18:37:17;24.40;99.90
2463;DHT22;1243;54.298;10.172;2022-08-04T18:39:43;24.30;99.90
2463;DHT22;1243;54.298;10.172;2022-08-04T18:42:09;24.30;99.90
2463;DHT22;1243;54.298;10.172;2022-08-04T18:44:35;24.30;99.90
2463;DHT22;1243;54.298;10.172;2022-08-04T18:47:02;24.20;1.00
2463;DHT22;1243;54.298;10.172;2022-08-04T18:49:27;24.20;99.90
2463;DHT22;1243;54.298;10.172;2022-08-04T18:51:54;24.10;99.90
2463;DHT22;1243;54.298;10.172;2022-08-04T18:54:21;24.10;99.90
2463;DHT22;1243;54.298;10.172;2022-08-04T18:56:50;24.20;99.90
2463;DHT22;1243;54.298;10.172;2022-08-04T18:59:17;24.20;99.90
2463;DHT22;1243;54.298;10.172;2022-08-04T19:01:43;24.20;99.90
2463;DHT22;1243;54.298;10.172;2022-08-04T19:04:09;24.10;99.90
2463;DHT22;1243;54.298;10.172;2022-08-04T19:06:35;24.10;99.90
2463;DHT22;1243;54.298;10.172;2022-08-04T19:09:04;24.10;99.90
2463;DHT22;1243;54.298;10.172;2022-08-04T19:11:31;24.00;99.90
2463;DHT22;1243;54.298;10.172;2022-08-04T19:14:01;24.00;99.90
2463;DHT22;1243;54.298;10.172;2022-08-04T19:16:28;23.90;1.00
2463;DHT22;1243;54.298;10.172;2022-08-04T19:18:56;23.90;99.90
2463;DHT22;1243;54.298;10.172;2022-08-04T19:21:22;23.90;99.90
2463;DHT22;1243;54.298;10.172;2022-08-04T19:23:47;23.80;99.90
2463;DHT22;1243;54.298;10.172;2022-08-04T19:26:13;23.80;99.90
2463;DHT22;1243;54.298;10.172;2022-08-04T19:28:39;23.70;99.90
2463;DHT22;1243;54.298;10.172;2022-08-04T19:31:06;23.70;99.90
2463;DHT22;1243;54.298;10.172;2022-08-04T19:33:32;23.60;99.90
2463;DHT22;1243;54.298;10.172;2022-08-04T19:35:58;23.60;99.90
2463;DHT22;1243;54.298;10.172;2022-08-04T19:38:24;23.50;99.90
2463;DHT22;1243;54.298;10.172;2022-08-04T19:40:50;23.50;1.00
2463;DHT22;1243;54.298;10.172;2022-08-04T19:43:16;23.40;1.00
2463;DHT22;1243;54.298;10.172;2022-08-04T19:45:42;23.40;1.00
2463;DHT22;1243;54.298;10.172;2022-08-04T19:48:08;23.30;99.90
2463;DHT22;1243;54.298;10.172;2022-08-04T19:50:34;23.20;1.00
2463;DHT22;1243;54.298;10.172;2022-08-04T19:53:00;23.20;1.00
2463;DHT22;1243;54.298;10.172;2022-08-04T19:55:26;23.10;1.00
2463;DHT22;1243;54.298;10.172;2022-08-04T19:57:52;23.00;99.90
2463;DHT22;1243;54.298;10.172;2022-08-04T20:00:18;23.00;1.00
2463;DHT22;1243;54.298;10.172;2022-08-04T20:02:45;22.90;1.00
2463;DHT22;1243;54.298;10.172;2022-08-04T20:05:11;22.90;1.00
2463;DHT22;1243;54.298;10.172;2022-08-04T20:07:37;22.80;1.00
2463;DHT22;1243;54.298;10.172;2022-08-04T20:10:04;22.90;1.00
2463;DHT22;1243;54.298;10.172;2022-08-04T20:12:31;22.90;1.00
2463;DHT22;1243;54.298;10.172;2022-08-04T20:14:56;22.80;1.00
2463;DHT22;1243;54.298;10.172;2022-08-04T20:17:22;22.80;1.00
2463;DHT22;1243;54.298;10.172;2022-08-04T20:19:49;22.80;1.00
2463;DHT22;1243;54.298;10.172;2022-08-04T20:22:14;22.70;1.00
2463;DHT22;1243;54.298;10.172;2022-08-04T20:24:43;22.70;1.00
2463;DHT22;1243;54.298;10.172;2022-08-04T20:27:13;22.70;1.00
2463;DHT22;1243;54.298;10.172;2022-08-04T20:29:39;22.60;1.00
2463;DHT22;1243;54.298;10.172;2022-08-04T20:32:05;22.60;1.00
2463;DHT22;1243;54.298;10.172;2022-08-04T20:34:31;22.50;1.00
2463;DHT22;1243;54.298;10.172;2022-08-04T20:36:56;22.50;1.00
2463;DHT22;1243;54.298;10.172;2022-08-04T20:39:22;22.40;1.00
2463;DHT22;1243;54.298;10.172;2022-08-04T20:41:48;22.40;1.00
2463;DHT22;1243;54.298;10.172;2022-08-04T20:44:14;22.30;1.00
2463;DHT22;1243;54.298;10.172;2022-08-04T20:46:40;22.20;1.00
2463;DHT22;1243;54.298;10.172;2022-08-04T20:49:05;22.20;1.00
2463;DHT22;1243;54.298;10.172;2022-08-04T20:51:31;22.20;1.00
2463;DHT22;1243;54.298;10.172;2022-08-04T20:53:57;22.10;1.00
2463;DHT22;1243;54.298;10.172;2022-08-04T20:56:23;22.10;1.00
2463;DHT22;1243;54.298;10.172;2022-08-04T20:58:48;22.10;1.00
2463;DHT22;1243;54.298;10.172;2022-08-04T21:01:14;22.00;1.00
2463;DHT22;1243;54.298;10.172;2022-08-04T21:03:40;22.00;1.00
2463;DHT22;1243;54.298;10.172;2022-08-04T21:06:24;21.90;1.00
2463;DHT22;1243;54.298;10.172;2022-08-04T21:08:55;21.90;1.00
2463;DHT22;1243;54.298;10.172;2022-08-04T21:11:20;21.80;1.00
2463;DHT22;1243;54.298;10.172;2022-08-04T21:13:46;21.70;1.00
2463;DHT22;1243;54.298;10.172;2022-08-04T21:16:12;21.70;1.00
2463;DHT22;1243;54.298;10.172;2022-08-04T21:18:37;21.70;1.00
2463;DHT22;1243;54.298;10.172;2022-08-04T21:21:03;21.60;1.00
2463;DHT22;1243;54.298;10.172;2022-08-04T21:23:28;21.60;1.00
2463;DHT22;1243;54.298;10.172;2022-08-04T21:26:01;21.60;1.00
2463;DHT22;1243;54.298;10.172;2022-08-04T21:28:28;21.50;1.00
2463;DHT22;1243;54.298;10.172;2022-08-04T21:30:54;21.50;1.00
2463;DHT22;1243;54.298;10.172;2022-08-04T21:33:20;21.40;1.00
2463;DHT22;1243;54.298;10.172;2022-08-04T21:35:46;21.30;1.00
2463;DHT22;1243;54.298;10.172;2022-08-04T21:38:12;21.30;1.00
2463;DHT22;1243;54.298;10.172;2022-08-04T21:40:38;21.30;1.00
2463;DHT22;1243;54.298;10.172;2022-08-04T21:43:04;21.30;1.00
2463;DHT22;1243;54.298;10.172;2022-08-04T21:45:30;21.30;1.00
2463;DHT22;1243;54.298;10.172;2022-08-04T21:47:55;21.20;1.00
2463;DHT22;1243;54.298;10.172;2022-08-04T21:50:21;21.20;1.00
2463;DHT22;1243;54.298;10.172;2022-08-04T21:52:48;21.10;1.00
2463;DHT22;1243;54.298;10.172;2022-08-04T21:55:13;21.10;1.00
2463;DHT22;1243;54.298;10.172;2022-08-04T21:57:39;21.00;1.00
2463;DHT22;1243;54.298;10.172;2022-08-04T22:00:06;21.00;1.00
2463;DHT22;1243;54.298;10.172;2022-08-04T22:02:32;20.90;1.00
2463;DHT22;1243;54.298;10.172;2022-08-04T22:04:58;20.90;1.00
2463;DHT22;1243;54.298;10.172;2022-08-04T22:07:24;20.90;1.00
2463;DHT22;1243;54.298;10.172;2022-08-04T22:09:49;20.90;1.00
2463;DHT22;1243;54.298;10.172;2022-08-04T22:12:15;20.80;1.00
2463;DHT22;1243;54.298;10.172;2022-08-04T22:14:41;20.80;1.00
2463;DHT22;1243;54.298;10.172;2022-08-04T22:17:07;20.70;1.00
2463;DHT22;1243;54.298;10.172;2022-08-04T22:19:32;20.70;1.00
2463;DHT22;1243;54.298;10.172;2022-08-04T22:21:58;20.70;1.00
2463;DHT22;1243;54.298;10.172;2022-08-04T22:24:24;20.70;1.00
2463;DHT22;1243;54.298;10.172;2022-08-04T22:26:49;20.60;1.00
2463;DHT22;1243;54.298;10.172;2022-08-04T22:29:15;20.50;1.00
2463;DHT22;1243;54.298;10.172;2022-08-04T22:31:42;20.40;9.80
2463;DHT22;1243;54.298;10.172;2022-08-04T22:34:08;20.40;1.00
2463;DHT22;1243;54.298;10.172;2022-08-04T22:36:34;20.50;27.20
2463;DHT22;1243;54.298;10.172;2022-08-04T22:38:59;20.50;36.40
2463;DHT22;1243;54.298;10.172;2022-08-04T22:41:25;20.50;39.50
2463;DHT22;1243;54.298;10.172;2022-08-04T22:43:51;20.50;9.10
2463;DHT22;1243;54.298;10.172;2022-08-04T22:46:23;20.40;1.00
2463;DHT22;1243;54.298;10.172;2022-08-04T22:48:49;20.40;1.00
2463;DHT22;1243;54.298;10.172;2022-08-04T22:51:15;20.30;8.20
2463;DHT22;1243;54.298;10.172;2022-08-04T22:53:41;20.30;11.90
2463;DHT22;1243;54.298;10.172;2022-08-04T22:56:07;20.40;27.00
2463;DHT22;1243;54.298;10.172;2022-08-04T22:58:33;20.30;46.00
2463;DHT22;1243;54.298;10.172;2022-08-04T23:00:59;20.20;56.50
2463;DHT22;1243;54.298;10.172;2022-08-04T23:03:25;20.20;51.50
2463;DHT22;1243;54.298;10.172;2022-08-04T23:05:50;20.20;31.90
2463;DHT22;1243;54.298;10.172;2022-08-04T23:08:16;20.10;43.80
2463;DHT22;1243;54.298;10.172;2022-08-04T23:10:43;20.00;34.50
2463;DHT22;1243;54.298;10.172;2022-08-04T23:13:10;20.00;44.30
2463;DHT22;1243;54.298;10.172;2022-08-04T23:15:37;19.90;78.00
2463;DHT22;1243;54.298;10.172;2022-08-04T23:18:02;19.90;93.00
2463;DHT22;1243;54.298;10.172;2022-08-04T23:20:28;19.90;74.60
2463;DHT22;1243;54.298;10.172;2022-08-04T23:22:54;19.90;83.50
2463;DHT22;1243;54.298;10.172;2022-08-04T23:25:20;19.80;81.50
2463;DHT22;1243;54.298;10.172;2022-08-04T23:27:47;19.80;75.90
2463;DHT22;1243;54.298;10.172;2022-08-04T23:30:13;19.70;58.40
2463;DHT22;1243;54.298;10.172;2022-08-04T23:32:39;19.70;60.40
2463;DHT22;1243;54.298;10.172;2022-08-04T23:35:08;19.60;68.00
2463;DHT22;1243;54.298;10.172;2022-08-04T23:37:34;19.50;65.90
2463;DHT22;1243;54.298;10.172;2022-08-04T23:40:00;19.50;56.40
2463;DHT22;1243;54.298;10.172;2022-08-04T23:42:25;19.50;62.00
2463;DHT22;1243;54.298;10.172;2022-08-04T23:44:51;19.50;50.70
2463;DHT22;1243;54.298;10.172;2022-08-04T23:47:19;19.50;46.70
2463;DHT22;1243;54.298;10.172;2022-08-04T23:49:44;19.40;35.10
2463;DHT22;1243;54.298;10.172;2022-08-04T23:52:11;19.40;18.50
2463;DHT22;1243;54.298;10.172;2022-08-04T23:54:37;19.40;11.80
2463;DHT22;1243;54.298;10.172;2022-08-04T23:57:03;19.40;16.30
2463;DHT22;1243;54.298;10.172;2022-08-04T23:59:28;19.30;3.70
